Time;durP1;ratioP1;P1;durP2;ratioP2;P2;SDS_P1;SDS_P2;PMS_P1;PMS_P2;Temp;Humidity;BMP_temperature;BMP_pressure;BME280_temperature;BME280_humidity;BME280_pressure;Samples;Min_cycle;Max_cycle;Signal;HPM_P1;HPM_P2
2023/04/19 00:00:08;;;;;;;25.08;14.70;;;9.10;99.90;;;;;;4954152;28;20039;-65
2023/04/19 00:02:34;;;;;;;26.23;15.25;;;9.10;99.90;;;;;;4937445;29;20077;-66
2023/04/19 00:05:00;;;;;;;27.02;15.25;;;9.10;99.90;;;;;;4952679;28;20635;-64
2023/04/19 00:07:26;;;;;;;22.90;14.68;;;9.00;99.90;;;;;;4953961;28;20031;-65
2023/04/19 00:09:52;;;;;;;24.45;14.75;;;9.00;99.90;;;;;;4954321;28;20043;-64
2023/04/19 00:12:17;;;;;;;25.83;14.55;;;9.00;99.90;;;;;;4954164;28;20039;-64
2023/04/19 00:14:43;;;;;;;25.40;15.23;;;9.00;99.90;;;;;;4953122;28;20486;-64
2023/04/19 00:17:10;;;;;;;25.15;15.40;;;9.00;99.90;;;;;;4954954;28;20058;-64
2023/04/19 00:19:36;;;;;;;22.88;14.38;;;8.90;99.90;;;;;;4954244;29;20117;-64
2023/04/19 00:22:02;;;;;;;26.40;14.57;;;8.90;99.90;;;;;;4954259;28;20043;-64
2023/04/19 00:24:27;;;;;;;23.00;14.07;;;8.90;99.90;;;;;;4953013;28;20035;-64
2023/04/19 00:26:53;;;;;;;22.83;14.65;;;8.80;99.90;;;;;;4953601;28;20584;-64
2023/04/19 00:29:19;;;;;;;28.58;14.70;;;8.90;99.90;;;;;;4953775;28;20031;-64
2023/04/19 00:31:44;;;;;;;24.55;13.80;;;8.90;99.90;;;;;;4955487;28;20399;-64
2023/04/19 00:34:10;;;;;;;22.15;13.45;;;8.90;99.90;;;;;;4953626;28;20049;-64
2023/04/19 00:36:36;;;;;;;24.77;13.63;;;8.90;99.90;;;;;;4937059;29;20090;-64
2023/04/19 00:39:02;;;;;;;22.63;13.68;;;8.90;99.90;;;;;;4952906;28;20042;-64
2023/04/19 00:41:27;;;;;;;24.05;13.50;;;8.90;99.90;;;;;;4954497;28;20079;-64
2023/04/19 00:43:53;;;;;;;23.33;13.45;;;9.00;99.90;;;;;;4953763;28;20039;-64
2023/04/19 00:46:19;;;;;;;20.67;13.07;;;8.90;99.90;;;;;;4952190;28;20035;-64
2023/04/19 00:48:45;;;;;;;22.17;13.57;;;9.00;99.90;;;;;;4954806;28;20486;-64
2023/04/19 00:51:11;;;;;;;20.30;13.10;;;9.00;99.90;;;;;;4953340;28;20090;-64
2023/04/19 00:53:39;;;;;;;20.85;13.48;;;9.00;99.90;;;;;;4953886;29;20044;-64
2023/04/19 00:56:05;;;;;;;24.83;13.07;;;9.00;99.90;;;;;;4952437;28;20433;-64
2023/04/19 00:58:31;;;;;;;22.23;12.73;;;9.00;99.90;;;;;;4938040;29;20039;-64
2023/04/19 01:00:57;;;;;;;20.50;12.80;;;9.00;99.90;;;;;;4953474;28;20066;-64
2023/04/19 01:03:22;;;;;;;21.98;12.98;;;9.00;99.90;;;;;;4953862;29;20094;-64
2023/04/19 01:05:48;;;;;;;18.35;12.18;;;9.00;99.90;;;;;;4961004;28;20094;-64
2023/04/19 01:08:14;;;;;;;20.10;12.88;;;9.00;99.90;;;;;;4954874;28;20047;-64
2023/04/19 01:10:40;;;;;;;19.98;12.05;;;9.00;99.90;;;;;;4952601;28;20106;-64
2023/04/19 01:13:05;;;;;;;20.90;12.48;;;9.00;99.90;;;;;;4953018;28;20387;-64
2023/04/19 01:15:31;;;;;;;18.95;12.07;;;9.00;99.90;;;;;;4952668;28;20043;-64
2023/04/19 01:17:56;;;;;;;20.48;11.68;;;9.00;99.90;;;;;;4954306;28;20031;-64
2023/04/19 01:20:22;;;;;;;20.42;12.07;;;9.00;99.90;;;;;;4952838;28;20621;-64
2023/04/19 01:22:48;;;;;;;18.02;11.20;;;9.00;99.90;;;;;;4953628;28;20047;-64
2023/04/19 01:25:14;;;;;;;20.15;11.63;;;9.00;99.90;;;;;;4950296;28;20126;-64
2023/04/19 01:27:39;;;;;;;19.02;11.18;;;9.00;99.90;;;;;;4958878;28;20046;-64
2023/04/19 01:30:06;;;;;;;18.73;10.95;;;9.00;99.90;;;;;;4950243;28;20047;-64
2023/04/19 01:32:31;;;;;;;18.73;11.60;;;9.00;99.90;;;;;;4953065;28;20031;-64
2023/04/19 01:34:57;;;;;;;17.42;10.32;;;9.00;99.90;;;;;;4955504;28;20039;-64
2023/04/19 01:37:22;;;;;;;19.40;10.50;;;9.00;99.90;;;;;;4957164;29;20039;-64
2023/04/19 01:39:48;;;;;;;17.92;10.68;;;9.00;99.90;;;;;;4955089;28;20039;-64
2023/04/19 01:42:14;;;;;;;20.00;10.68;;;9.00;99.90;;;;;;4956735;28;20090;-64
2023/04/19 01:44:40;;;;;;;19.55;10.65;;;9.00;99.90;;;;;;4940355;29;20126;-64
2023/04/19 01:47:05;;;;;;;23.00;10.85;;;9.00;99.90;;;;;;4952689;28;21070;-64
2023/04/19 01:49:31;;;;;;;18.27;10.13;;;9.00;99.90;;;;;;4956228;28;20582;-64
2023/04/19 01:51:56;;;;;;;17.30;10.50;;;9.00;99.90;;;;;;4956692;28;20039;-64
2023/04/19 01:54:22;;;;;;;17.00;9.90;;;9.00;99.90;;;;;;4955653;28;20442;-64
2023/04/19 01:56:47;;;;;;;15.68;10.13;;;8.90;99.90;;;;;;4970395;28;20043;-64
2023/04/19 01:59:13;;;;;;;15.40;10.25;;;8.90;99.90;;;;;;4957765;28;20032;-64
2023/04/19 02:01:39;;;;;;;17.92;11.05;;;8.80;99.90;;;;;;4957213;29;20486;-64
2023/04/19 02:04:06;;;;;;;16.55;10.07;;;8.80;99.90;;;;;;4955470;28;20047;-64
2023/04/19 02:06:31;;;;;;;16.20;10.90;;;8.80;99.90;;;;;;4959845;28;20039;-64
2023/04/19 02:08:57;;;;;;;17.63;10.20;;;8.80;99.90;;;;;;4947644;28;20093;-64
2023/04/19 02:11:23;;;;;;;18.08;9.88;;;8.70;99.90;;;;;;4976013;28;20125;-64
2023/04/19 02:13:48;;;;;;;18.05;10.88;;;8.70;99.90;;;;;;4969921;28;20051;-64
2023/04/19 02:16:14;;;;;;;17.42;10.30;;;8.60;99.90;;;;;;4955881;28;20043;-64
2023/04/19 02:18:40;;;;;;;17.08;10.30;;;8.60;99.90;;;;;;4956030;28;20035;-64
2023/04/19 02:21:07;;;;;;;16.80;10.48;;;8.50;99.90;;;;;;4956625;29;20492;-64
2023/04/19 02:23:33;;;;;;;17.52;10.77;;;8.50;99.90;;;;;;4960470;28;20035;-64
2023/04/19 02:26:01;;;;;;;16.65;10.55;;;8.50;99.90;;;;;;4959680;28;20039;-64
2023/04/19 02:28:28;;;;;;;17.42;10.98;;;8.50;99.90;;;;;;4939057;28;20142;-64
2023/04/19 02:30:54;;;;;;;18.63;11.38;;;8.50;99.90;;;;;;4954280;28;20046;-64
2023/04/19 02:33:21;;;;;;;18.85;11.15;;;8.40;99.90;;;;;;4938349;28;20047;-64
2023/04/19 02:35:47;;;;;;;16.52;10.55;;;8.40;99.90;;;;;;4955882;28;20122;-64
2023/04/19 02:38:12;;;;;;;19.60;11.05;;;8.40;99.90;;;;;;4953328;28;20080;-65
2023/04/19 02:40:38;;;;;;;16.70;11.40;;;8.40;99.90;;;;;;4955613;28;20067;-64
2023/04/19 02:43:03;;;;;;;17.40;10.30;;;8.40;99.90;;;;;;4955618;28;20043;-64
2023/04/19 02:45:29;;;;;;;15.55;10.30;;;8.40;99.90;;;;;;4954988;28;20036;-64
2023/04/19 02:47:55;;;;;;;17.38;10.75;;;8.40;99.90;;;;;;4962392;28;20592;-64
2023/04/19 02:50:20;;;;;;;16.83;10.63;;;8.40;99.90;;;;;;4956012;28;20035;-64
2023/04/19 02:52:46;;;;;;;15.95;9.52;;;8.40;99.90;;;;;;4955610;28;20486;-64
2023/04/19 02:55:11;;;;;;;14.75;9.93;;;8.40;99.90;;;;;;4955694;28;20130;-64
2023/04/19 02:57:37;;;;;;;15.00;9.85;;;8.30;99.90;;;;;;4958302;28;20035;-64
2023/04/19 03:00:04;;;;;;;15.80;10.10;;;8.30;99.90;;;;;;4955566;28;20066;-64
2023/04/19 03:02:30;;;;;;;14.55;9.55;;;8.30;99.90;;;;;;4953302;28;20035;-64
2023/04/19 03:04:55;;;;;;;15.82;9.82;;;8.30;99.90;;;;;;4954974;28;20055;-64
2023/04/19 03:07:22;;;;;;;16.08;10.20;;;8.30;99.90;;;;;;4954743;28;20149;-64
2023/04/19 03:09:48;;;;;;;16.85;9.80;;;8.30;99.90;;;;;;4955600;29;20071;-64
2023/04/19 03:12:13;;;;;;;14.73;9.18;;;8.30;99.90;;;;;;4954448;28;20113;-64
2023/04/19 03:14:39;;;;;;;14.60;9.82;;;8.20;99.90;;;;;;4957835;28;20490;-64
2023/04/19 03:17:04;;;;;;;15.85;9.77;;;8.20;99.90;;;;;;4938049;29;20043;-64
2023/04/19 03:19:30;;;;;;;17.08;10.15;;;8.10;99.90;;;;;;4955157;29;20043;-64
2023/04/19 03:21:55;;;;;;;15.98;9.43;;;8.10;99.90;;;;;;4954675;28;20154;-64
2023/04/19 03:24:29;;;;;;;17.23;9.75;;;8.10;99.90;;;;;;4954570;28;20490;-64
2023/04/19 03:26:55;;;;;;;18.92;9.88;;;8.10;99.90;;;;;;4955023;28;20109;-64
2023/04/19 03:29:21;;;;;;;17.98;9.50;;;8.00;99.90;;;;;;4955777;28;20055;-64
2023/04/19 03:31:47;;;;;;;19.27;10.13;;;7.90;99.90;;;;;;4965698;28;20034;-64
2023/04/19 03:34:12;;;;;;;17.27;9.85;;;7.80;99.90;;;;;;4954600;28;20036;-64
2023/04/19 03:36:39;;;;;;;15.98;9.65;;;7.80;99.90;;;;;;4955440;29;20039;-64
2023/04/19 03:39:05;;;;;;;15.52;9.25;;;7.70;99.90;;;;;;4959103;28;20505;-65
2023/04/19 03:41:30;;;;;;;16.23;9.68;;;7.60;99.90;;;;;;4957354;28;20031;-65
2023/04/19 03:43:57;;;;;;;17.05;9.88;;;7.50;99.90;;;;;;4954835;28;20074;-65
2023/04/19 03:46:23;;;;;;;16.95;9.15;;;7.50;99.90;;;;;;4952535;28;20145;-65
2023/04/19 03:48:49;;;;;;;13.45;8.98;;;7.40;99.90;;;;;;4954012;28;20401;-65
2023/04/19 03:51:15;;;;;;;15.05;9.77;;;7.30;99.90;;;;;;4955020;28;20493;-64
2023/04/19 03:53:40;;;;;;;15.23;9.48;;;7.20;99.90;;;;;;4954905;29;20413;-65
2023/04/19 03:56:06;;;;;;;16.70;9.20;;;7.10;99.90;;;;;;4955812;28;20036;-65
2023/04/19 03:58:32;;;;;;;15.88;9.40;;;7.00;99.90;;;;;;4953795;28;20035;-65
2023/04/19 04:00:58;;;;;;;16.67;9.90;;;6.90;99.90;;;;;;4954941;29;20050;-65
2023/04/19 04:03:23;;;;;;;14.70;9.52;;;6.80;99.90;;;;;;4952887;28;20047;-64
2023/04/19 04:05:49;;;;;;;17.65;10.00;;;6.70;99.90;;;;;;4954530;28;20069;-65
2023/04/19 04:08:14;;;;;;;17.92;10.30;;;6.70;99.90;;;;;;4954270;28;20410;-65
2023/04/19 04:10:40;;;;;;;14.18;9.30;;;6.60;99.90;;;;;;4953031;28;20133;-65
2023/04/19 04:13:05;;;;;;;20.33;10.23;;;6.50;99.90;;;;;;4952326;28;20102;-65
2023/04/19 04:15:31;;;;;;;14.48;9.35;;;6.40;99.90;;;;;;4953863;28;20047;-65
2023/04/19 04:17:56;;;;;;;15.15;9.52;;;6.40;99.90;;;;;;4952742;29;20040;-64
2023/04/19 04:20:22;;;;;;;19.10;9.68;;;6.40;99.90;;;;;;4936287;28;20050;-65
2023/04/19 04:22:47;;;;;;;16.85;9.32;;;6.30;99.90;;;;;;4959383;28;20042;-65
2023/04/19 04:25:16;;;;;;;15.88;9.40;;;6.30;99.90;;;;;;4953986;28;20036;-65
2023/04/19 04:27:45;;;;;;;17.52;9.45;;;6.30;99.90;;;;;;4954689;28;20035;-64
2023/04/19 04:30:11;;;;;;;18.77;9.65;;;6.30;99.90;;;;;;4953437;28;20507;-65
2023/04/19 04:32:37;;;;;;;16.27;10.10;;;6.30;99.90;;;;;;4953820;28;20043;-65
2023/04/19 04:35:06;;;;;;;15.20;8.90;;;6.30;99.90;;;;;;4954724;28;20074;-65
2023/04/19 04:37:33;;;;;;;17.40;9.93;;;6.20;99.90;;;;;;4959010;28;20126;-65
2023/04/19 04:40:06;;;;;;;15.93;9.52;;;6.20;99.90;;;;;;4953710;28;20063;-65
2023/04/19 04:42:32;;;;;;;17.52;9.45;;;6.10;99.90;;;;;;4960969;28;20043;-65
2023/04/19 04:45:00;;;;;;;14.95;9.10;;;6.10;99.90;;;;;;4959198;28;20883;-65
2023/04/19 04:47:33;;;;;;;20.00;9.43;;;6.10;99.90;;;;;;4961401;28;20035;-64
2023/04/19 04:49:59;;;;;;;18.27;9.82;;;6.00;99.90;;;;;;4962277;28;20039;-65
2023/04/19 04:52:25;;;;;;;14.50;8.70;;;6.00;99.90;;;;;;4960319;28;20039;-65
2023/04/19 04:54:51;;;;;;;16.65;9.02;;;5.90;99.90;;;;;;4964604;28;20388;-65
2023/04/19 04:57:16;;;;;;;15.80;8.77;;;5.90;99.90;;;;;;4963722;28;20108;-64
2023/04/19 04:59:42;;;;;;;17.05;9.82;;;6.00;99.90;;;;;;4958049;28;20083;-65
2023/04/19 05:02:07;;;;;;;16.90;9.13;;;6.00;99.90;;;;;;4948537;28;20054;-65
2023/04/19 05:04:33;;;;;;;15.52;9.50;;;6.00;99.90;;;;;;4963146;28;20510;-65
2023/04/19 05:06:58;;;;;;;17.67;9.65;;;5.90;99.90;;;;;;4956728;28;20446;-65
2023/04/19 05:09:24;;;;;;;15.60;9.80;;;6.00;99.90;;;;;;4959402;28;20612;-64
2023/04/19 05:11:49;;;;;;;16.20;8.70;;;6.00;99.90;;;;;;4958165;28;20438;-64
2023/04/19 05:14:15;;;;;;;17.42;8.93;;;6.00;99.90;;;;;;4957014;28;20031;-64
2023/04/19 05:16:41;;;;;;;21.85;9.00;;;6.00;99.90;;;;;;4961343;28;20035;-64
2023/04/19 05:19:06;;;;;;;16.73;8.98;;;6.10;99.90;;;;;;4958661;28;20116;-64
2023/04/19 05:21:33;;;;;;;16.23;9.07;;;6.10;99.90;;;;;;4963106;28;20474;-64
2023/04/19 05:23:58;;;;;;;20.15;8.73;;;6.10;99.90;;;;;;4965869;28;20049;-64
2023/04/19 05:26:24;;;;;;;15.55;8.52;;;6.10;99.90;;;;;;4961252;28;20038;-64
2023/04/19 05:28:49;;;;;;;16.17;8.70;;;6.10;99.90;;;;;;4962814;28;20042;-64
2023/04/19 05:31:15;;;;;;;12.90;8.55;;;6.10;99.90;;;;;;4954203;28;20470;-64
2023/04/19 05:33:41;;;;;;;21.00;8.48;;;6.20;99.90;;;;;;4936149;28;20178;-64
2023/04/19 05:36:07;;;;;;;15.10;8.27;;;6.20;99.90;;;;;;4953622;28;20126;-64
2023/04/19 05:38:33;;;;;;;14.80;8.18;;;6.20;99.90;;;;;;4935265;28;20043;-64
2023/04/19 05:40:59;;;;;;;13.63;8.07;;;6.30;99.90;;;;;;4952857;28;20050;-64
2023/04/19 05:43:24;;;;;;;17.63;8.40;;;6.30;99.90;;;;;;4929655;28;20047;-64
2023/04/19 05:45:50;;;;;;;13.05;7.72;;;6.30;99.90;;;;;;4956425;28;20050;-64
2023/04/19 05:48:15;;;;;;;12.10;7.55;;;6.40;99.90;;;;;;4953494;28;20039;-64
2023/04/19 05:50:41;;;;;;;14.07;7.53;;;6.40;99.90;;;;;;4952814;28;20043;-64
2023/04/19 05:53:07;;;;;;;15.32;7.80;;;6.50;99.90;;;;;;4952698;28;20055;-64
2023/04/19 05:55:32;;;;;;;19.13;7.35;;;6.60;99.90;;;;;;4934274;28;20046;-65
2023/04/19 05:57:58;;;;;;;13.88;7.30;;;6.60;99.90;;;;;;4937656;28;20047;-64
2023/04/19 06:00:24;;;;;;;18.60;7.57;;;6.70;99.90;;;;;;4940096;28;20129;-64
2023/04/19 06:02:49;;;;;;;17.42;6.90;;;6.80;99.90;;;;;;4952801;28;20039;-64
2023/04/19 06:05:15;;;;;;;14.90;6.22;;;6.90;99.90;;;;;;4937384;29;20051;-64
2023/04/19 06:07:41;;;;;;;11.48;6.32;;;7.00;99.90;;;;;;4952966;28;20045;-63
2023/04/19 06:10:07;;;;;;;17.48;6.60;;;7.00;99.90;;;;;;4965659;23;20051;-65
2023/04/19 06:12:32;;;;;;;10.77;6.35;;;7.10;99.90;;;;;;4963253;28;20170;-65
2023/04/19 06:14:58;;;;;;;12.75;6.43;;;7.10;99.90;;;;;;4962925;28;20154;-64
2023/04/19 06:17:24;;;;;;;14.07;6.63;;;7.20;99.90;;;;;;4960144;28;20027;-65
2023/04/19 06:19:50;;;;;;;11.07;5.88;;;7.30;99.90;;;;;;4951594;28;20474;-65
2023/04/19 06:22:16;;;;;;;23.02;6.45;;;7.30;99.90;;;;;;4974180;28;20047;-65
2023/04/19 06:24:44;;;;;;;12.10;6.18;;;7.40;99.90;;;;;;4969715;28;20035;-65
2023/04/19 06:27:10;;;;;;;13.15;6.38;;;7.40;99.90;;;;;;4971993;28;20074;-65
2023/04/19 06:29:36;;;;;;;14.30;6.43;;;7.50;99.90;;;;;;4968442;28;20642;-65
2023/04/19 06:32:01;;;;;;;15.82;6.07;;;7.60;99.90;;;;;;4975849;28;20039;-65
2023/04/19 06:34:27;;;;;;;10.05;5.75;;;7.60;99.90;;;;;;4966538;28;20054;-65
2023/04/19 06:36:52;;;;;;;10.68;6.13;;;7.70;99.90;;;;;;4968710;28;20477;-64
2023/04/19 06:39:18;;;;;;;22.40;5.90;;;7.80;99.90;;;;;;4963093;28;20486;-65
2023/04/19 06:41:44;;;;;;;10.38;5.43;;;7.80;99.90;;;;;;4969088;28;20038;-65
2023/04/19 06:44:10;;;;;;;10.98;5.95;;;7.80;99.90;;;;;;4941086;29;20109;-66
2023/04/19 06:46:36;;;;;;;10.48;5.70;;;7.90;99.90;;;;;;4957924;28;20106;-65
2023/04/19 06:49:01;;;;;;;7.90;4.80;;;7.90;99.90;;;;;;4960979;28;20126;-65
2023/04/19 06:51:27;;;;;;;8.98;5.47;;;8.00;99.90;;;;;;4961207;28;20062;-65
2023/04/19 06:53:52;;;;;;;10.95;5.20;;;8.00;99.90;;;;;;4963693;28;20043;-66
2023/04/19 06:56:45;;;;;;;7.80;4.43;;;8.10;99.90;;;;;;4973518;28;20034;-65
2023/04/19 06:59:16;;;;;;;9.90;4.78;;;8.20;99.90;;;;;;4969734;28;20031;-66
2023/04/19 07:01:42;;;;;;;9.73;5.00;;;8.20;99.90;;;;;;4968304;28;20039;-65
2023/04/19 07:04:08;;;;;;;9.27;5.07;;;8.30;99.90;;;;;;4965836;28;20043;-65
2023/04/19 07:06:34;;;;;;;9.80;5.22;;;8.30;99.90;;;;;;4954018;28;20042;-65
2023/04/19 07:09:00;;;;;;;7.95;4.70;;;8.40;99.90;;;;;;4970627;28;20538;-65
2023/04/19 07:11:25;;;;;;;6.75;4.50;;;8.50;99.90;;;;;;4958961;28;20118;-65
2023/04/19 07:13:51;;;;;;;14.50;4.43;;;8.60;99.90;;;;;;4964620;28;20426;-65
2023/04/19 07:16:17;;;;;;;10.73;4.22;;;8.60;99.90;;;;;;4969757;28;20110;-65
2023/04/19 07:18:42;;;;;;;14.80;4.13;;;8.60;99.90;;;;;;4956136;28;20077;-65
2023/04/19 07:21:09;;;;;;;10.40;3.80;;;8.70;99.90;;;;;;4967520;28;20103;-65
2023/04/19 07:23:34;;;;;;;8.65;3.80;;;8.70;99.90;;;;;;4961173;28;20031;-66
2023/04/19 07:26:00;;;;;;;6.40;3.58;;;8.80;99.90;;;;;;4970624;28;20511;-65
2023/04/19 07:28:28;;;;;;;6.03;4.07;;;8.80;99.60;;;;;;4966196;28;20050;-65
2023/04/19 07:30:53;;;;;;;8.82;4.20;;;8.90;99.80;;;;;;4974405;28;20078;-65
2023/04/19 07:33:19;;;;;;;6.05;3.83;;;8.90;99.90;;;;;;4962574;28;20085;-65
2023/04/19 07:35:44;;;;;;;6.55;3.65;;;9.00;99.90;;;;;;4957578;28;20035;-65
2023/04/19 07:38:10;;;;;;;13.10;3.70;;;9.10;99.90;;;;;;4948456;28;20054;-65
2023/04/19 07:40:36;;;;;;;5.07;2.97;;;9.20;99.50;;;;;;4960251;28;20035;-65
2023/04/19 07:43:01;;;;;;;7.60;3.10;;;9.20;98.30;;;;;;4947423;28;20042;-65
2023/04/19 07:45:28;;;;;;;4.63;3.38;;;9.20;97.70;;;;;;4966621;28;20039;-65
2023/04/19 07:47:54;;;;;;;6.85;3.50;;;9.20;99.50;;;;;;4973971;28;20084;-66
2023/04/19 07:50:20;;;;;;;4.28;2.90;;;9.20;98.30;;;;;;4951118;28;20137;-65
2023/04/19 07:52:45;;;;;;;5.35;3.03;;;9.30;97.50;;;;;;4967620;28;20051;-65
2023/04/19 07:55:11;;;;;;;6.13;3.55;;;9.40;98.90;;;;;;4959569;28;21812;-65
2023/04/19 07:57:36;;;;;;;5.03;3.40;;;9.40;97.80;;;;;;4953486;28;20039;-65
2023/04/19 08:00:03;;;;;;;5.40;3.33;;;9.40;97.30;;;;;;4961099;28;20563;-65
2023/04/19 08:02:29;;;;;;;5.28;3.22;;;9.50;99.00;;;;;;4966327;28;20047;-66
2023/04/19 08:04:55;;;;;;;5.05;3.28;;;9.60;99.40;;;;;;4970726;28;20089;-64
2023/04/19 08:07:22;;;;;;;6.70;3.90;;;9.60;97.90;;;;;;4968466;28;20059;-66
2023/04/19 08:09:48;;;;;;;7.97;3.92;;;9.60;98.80;;;;;;4965432;28;20041;-66
2023/04/19 08:12:13;;;;;;;10.20;4.03;;;9.80;98.50;;;;;;4973777;28;20064;-66
2023/04/19 08:14:39;;;;;;;4.88;3.25;;;9.80;96.60;;;;;;4958142;28;20034;-66
2023/04/19 08:17:05;;;;;;;4.78;3.38;;;9.80;98.00;;;;;;4962938;28;20061;-66
2023/04/19 08:19:30;;;;;;;7.15;3.45;;;9.90;97.60;;;;;;4973520;28;20035;-65
2023/04/19 08:21:56;;;;;;;11.30;4.18;;;10.00;97.40;;;;;;4967367;28;20122;-66
2023/04/19 08:24:22;;;;;;;8.98;4.13;;;10.00;97.10;;;;;;4964991;28;20648;-66
2023/04/19 08:26:52;;;;;;;11.85;4.22;;;10.10;96.30;;;;;;4958843;28;20034;-66
2023/04/19 08:29:21;;;;;;;9.25;3.97;;;10.10;95.10;;;;;;4967964;28;20085;-63
2023/04/19 08:31:47;;;;;;;9.48;4.45;;;10.20;94.80;;;;;;4959389;28;20043;-66
2023/04/19 08:34:13;;;;;;;7.43;4.20;;;10.30;96.70;;;;;;4962767;28;20122;-66
2023/04/19 08:36:38;;;;;;;7.78;4.43;;;10.30;96.50;;;;;;4973840;28;20039;-64
2023/04/19 08:39:04;;;;;;;8.27;4.28;;;10.40;96.60;;;;;;4969529;28;20573;-66
2023/04/19 08:41:30;;;;;;;8.55;4.10;;;10.40;95.40;;;;;;4972012;28;20030;-66
2023/04/19 08:43:57;;;;;;;7.00;4.18;;;10.40;94.10;;;;;;4964704;28;20047;-66
2023/04/19 08:46:23;;;;;;;7.18;4.55;;;10.40;93.80;;;;;;4969051;28;20038;-66
2023/04/19 08:48:50;;;;;;;6.82;4.32;;;10.40;94.10;;;;;;4953444;28;20054;-66
2023/04/19 08:51:19;;;;;;;7.03;4.60;;;10.60;95.70;;;;;;4963277;28;20078;-66
2023/04/19 08:53:47;;;;;;;11.15;4.07;;;10.70;95.20;;;;;;4973175;28;20130;-66
2023/04/19 08:56:12;;;;;;;8.20;4.50;;;10.70;93.10;;;;;;4962293;28;20136;-64
2023/04/19 08:58:38;;;;;;;13.25;4.45;;;10.70;92.90;;;;;;4959991;28;20545;-65
2023/04/19 09:01:05;;;;;;;9.32;4.50;;;10.80;93.40;;;;;;4968886;28;20039;-65
2023/04/19 09:03:31;;;;;;;6.45;3.90;;;10.80;92.90;;;;;;4957422;28;20529;-65
2023/04/19 09:05:57;;;;;;;9.25;4.13;;;10.80;91.30;;;;;;4951636;28;20050;-65
2023/04/19 09:08:27;;;;;;;8.60;4.80;;;10.90;92.50;;;;;;4964424;28;20092;-64
2023/04/19 09:10:59;;;;;;;9.55;4.07;;;11.10;92.50;;;;;;4972917;28;20126;-66
2023/04/19 09:13:26;;;;;;;14.48;4.47;;;11.10;92.20;;;;;;4961453;28;20528;-64
2023/04/19 09:15:52;;;;;;;6.88;3.95;;;11.20;91.60;;;;;;4971298;28;20092;-65
2023/04/19 09:18:19;;;;;;;10.00;4.40;;;11.20;88.80;;;;;;4964448;28;20078;-65
2023/04/19 09:20:45;;;;;;;10.30;4.25;;;11.20;90.80;;;;;;4960768;28;20044;-65
2023/04/19 09:23:17;;;;;;;10.32;3.95;;;11.30;90.80;;;;;;4965565;28;20049;-64
2023/04/19 09:26:00;;;;;;;15.32;4.30;;;11.30;88.20;;;;;;4966847;28;20043;-65
2023/04/19 09:28:27;;;;;;;10.63;4.43;;;11.40;90.90;;;;;;4966342;28;20709;-64
2023/04/19 09:30:54;;;;;;;7.55;4.07;;;11.60;91.10;;;;;;4972202;28;20493;-64
2023/04/19 09:33:40;;;;;;;9.57;4.38;;;11.60;91.50;;;;;;4964464;28;20086;-64
2023/04/19 09:36:07;;;;;;;9.65;4.35;;;11.60;87.50;;;;;;4968082;28;20039;-64
2023/04/19 09:38:52;;;;;;;9.00;3.95;;;11.60;87.70;;;;;;4955350;28;20262;-65
2023/04/19 09:41:18;;;;;;;6.07;3.65;;;11.70;90.30;;;;;;4961617;28;20047;-64
2023/04/19 09:43:45;;;;;;;9.93;4.18;;;11.80;88.40;;;;;;4963260;28;20109;-65
2023/04/19 09:46:28;;;;;;;6.55;3.63;;;11.80;88.70;;;;;;4970949;28;20052;-65
2023/04/19 09:48:55;;;;;;;10.60;5.07;;;11.90;87.30;;;;;;4961146;28;20043;-65
2023/04/19 09:51:21;;;;;;;12.23;3.83;;;11.90;90.60;;;;;;4959993;28;20047;-65
2023/04/19 09:53:48;;;;;;;5.82;3.55;;;12.00;82.10;;;;;;4960154;28;20046;-65
2023/04/19 09:56:13;;;;;;;11.10;3.85;;;12.00;88.90;;;;;;4965150;28;20497;-65
2023/04/19 09:58:39;;;;;;;7.07;3.60;;;12.00;83.20;;;;;;4967825;28;20085;-65
2023/04/19 10:01:05;;;;;;;17.88;5.45;;;12.00;85.70;;;;;;4976410;28;20039;-66
2023/04/19 10:03:32;;;;;;;11.32;3.67;;;12.00;84.90;;;;;;4969397;28;20043;-66
2023/04/19 10:05:58;;;;;;;6.07;3.63;;;12.00;83.80;;;;;;4971368;28;20551;-66
2023/04/19 10:08:25;;;;;;;7.93;3.97;;;12.10;87.40;;;;;;4967916;28;20031;-67
2023/04/19 10:10:53;;;;;;;7.45;3.92;;;12.20;86.70;;;;;;4971819;28;20039;-67
2023/04/19 10:13:22;;;;;;;8.38;4.30;;;12.30;90.00;;;;;;4973068;28;20039;-66
2023/04/19 10:15:48;;;;;;;9.85;3.88;;;12.40;88.30;;;;;;4948886;28;20147;-65
2023/04/19 10:18:14;;;;;;;10.18;4.07;;;12.50;88.60;;;;;;4967195;28;20169;-66
2023/04/19 10:20:54;;;;;;;9.25;3.63;;;12.60;91.50;;;;;;4967779;28;20446;-65
2023/04/19 10:23:20;;;;;;;5.50;3.30;;;12.70;84.00;;;;;;4974614;28;20083;-66
2023/04/19 10:25:47;;;;;;;6.13;3.70;;;12.70;84.10;;;;;;4959566;28;20390;-65
2023/04/19 10:28:15;;;;;;;6.45;3.92;;;12.70;85.00;;;;;;4964838;28;20042;-66
2023/04/19 10:31:00;;;;;;;8.30;3.40;;;13.00;87.00;;;;;;4952240;28;20054;-66
2023/04/19 10:33:28;;;;;;;6.82;3.50;;;12.90;77.80;;;;;;4948725;28;20034;-66
2023/04/19 10:36:00;;;;;;;5.15;3.25;;;12.90;82.10;;;;;;4959141;28;20049;-66
2023/04/19 10:38:41;;;;;;;8.43;3.40;;;13.00;81.60;;;;;;4964342;28;20037;-66
2023/04/19 10:41:10;;;;;;;5.88;3.25;;;13.00;81.80;;;;;;4945423;28;20047;-66
2023/04/19 10:44:03;;;;;;;6.10;3.58;;;13.20;86.00;;;;;;4960956;28;20097;-66
2023/04/19 10:46:30;;;;;;;6.57;3.30;;;13.20;82.50;;;;;;4956944;28;20295;-66
2023/04/19 10:49:01;;;;;;;7.47;4.13;;;13.20;84.30;;;;;;4967140;28;20047;-66
2023/04/19 10:51:31;;;;;;;7.63;3.10;;;13.30;81.70;;;;;;4958852;28;20035;-66
2023/04/19 10:54:08;;;;;;;5.22;3.33;;;13.50;81.90;;;;;;4962063;28;20415;-66
2023/04/19 10:56:33;;;;;;;7.30;3.63;;;13.50;79.60;;;;;;4966608;28;20061;-66
2023/04/19 10:59:04;;;;;;;6.03;3.47;;;13.60;78.60;;;;;;4964987;28;20557;-66
2023/04/19 11:01:38;;;;;;;6.67;3.63;;;13.60;81.80;;;;;;4961990;28;20117;-65
2023/04/19 11:04:09;;;;;;;4.63;3.20;;;13.60;73.00;;;;;;4959957;28;20394;-66
2023/04/19 11:06:36;;;;;;;7.55;3.40;;;13.70;82.50;;;;;;4957697;28;20067;-66
2023/04/19 11:09:05;;;;;;;6.90;3.75;;;13.80;84.60;;;;;;4962929;28;20050;-66
2023/04/19 11:11:35;;;;;;;5.78;3.17;;;13.80;82.50;;;;;;4964635;28;20035;-66
2023/04/19 11:14:02;;;;;;;11.75;3.58;;;13.80;79.00;;;;;;4956867;28;20458;-67
2023/04/19 11:16:27;;;;;;;6.55;3.38;;;13.90;81.00;;;;;;4948184;28;20046;-66
2023/04/19 11:18:54;;;;;;;7.07;3.17;;;13.80;72.80;;;;;;4970566;28;20035;-66
2023/04/19 11:21:21;;;;;;;6.40;3.33;;;13.80;74.40;;;;;;4964395;28;20043;-66
2023/04/19 11:23:49;;;;;;;18.23;3.30;;;13.90;79.00;;;;;;4973062;28;20044;-66
2023/04/19 11:26:15;;;;;;;6.45;3.03;;;13.90;70.30;;;;;;4964708;28;20098;-66
2023/04/19 11:28:40;;;;;;;9.43;3.15;;;14.00;67.40;;;;;;4954843;28;20051;-67
2023/04/19 11:31:06;;;;;;;7.18;3.30;;;14.10;74.30;;;;;;4964139;28;20038;-66
2023/04/19 11:33:33;;;;;;;11.45;3.55;;;14.10;75.50;;;;;;4964761;28;20521;-66
2023/04/19 11:35:59;;;;;;;5.70;2.97;;;14.20;72.60;;;;;;4962566;28;20122;-65
2023/04/19 11:38:28;;;;;;;4.32;2.90;;;14.20;76.90;;;;;;4961467;28;20571;-65
2023/04/19 11:41:01;;;;;;;12.30;3.53;;;14.20;73.40;;;;;;4963632;28;20039;-65
2023/04/19 11:43:36;;;;;;;5.68;3.03;;;14.20;71.90;;;;;;4951180;29;20138;-65
2023/04/19 11:46:10;;;;;;;4.15;2.80;;;14.30;68.80;;;;;;4953818;28;20051;-65
2023/04/19 11:48:36;;;;;;;10.82;2.78;;;14.30;69.70;;;;;;4964303;28;20081;-65
2023/04/19 11:51:02;;;;;;;9.90;3.10;;;14.30;73.40;;;;;;4955309;28;20046;-65
2023/04/19 11:53:30;;;;;;;11.15;5.18;;;14.30;70.10;;;;;;4965270;28;20030;-65
2023/04/19 11:55:57;;;;;;;5.88;2.97;;;14.30;66.00;;;;;;4958840;28;20032;-65
2023/04/19 11:58:23;;;;;;;14.98;3.65;;;14.40;70.30;;;;;;4952034;28;20040;-65
2023/04/19 12:00:48;;;;;;;6.22;3.45;;;14.50;73.00;;;;;;4957630;28;20035;-65
2023/04/19 12:03:14;;;;;;;6.50;3.50;;;14.50;73.60;;;;;;4964027;28;20039;-65
2023/04/19 12:05:51;;;;;;;8.30;3.40;;;14.50;70.60;;;;;;4973814;28;20058;-65
2023/04/19 12:08:17;;;;;;;7.05;3.58;;;14.50;69.10;;;;;;4964240;28;20043;-65
2023/04/19 12:18:44;;;;;;;5.22;3.60;;;14.80;73.30;;;;;;5630702;23;20050;-68
2023/04/19 12:23:45;;;;;;;9.02;3.90;;;14.80;76.70;;;;;;5738989;23;20067;-70
2023/04/19 12:26:10;;;;;;;6.93;3.88;;;15.00;76.60;;;;;;4937559;28;20109;-72
2023/04/19 12:28:36;;;;;;;7.18;4.20;;;15.00;77.20;;;;;;4931680;28;20038;-73
2023/04/19 12:33:54;;;;;;;8.30;4.13;;;15.30;83.10;;;;;;4952193;26;20117;-70
2023/04/19 12:36:21;;;;;;;6.47;4.10;;;15.20;78.70;;;;;;4963737;28;20047;-70
2023/04/19 12:38:46;;;;;;;6.05;4.63;;;15.20;80.20;;;;;;4955695;28;20031;-70
2023/04/19 12:41:12;;;;;;;8.70;4.25;;;15.20;78.00;;;;;;4938262;28;20400;-69
2023/04/19 12:43:37;;;;;;;7.35;4.18;;;15.30;79.80;;;;;;4952086;29;20386;-70
2023/04/19 12:46:04;;;;;;;11.25;4.90;;;15.20;70.80;;;;;;4939561;29;20413;-70
2023/04/19 12:54:37;;;;;;;6.03;4.50;;;15.30;83.40;;;;;;5429962;23;20058;-70
2023/04/19 12:57:02;;;;;;;8.65;4.63;;;15.30;79.90;;;;;;4955566;28;20069;-70
2023/04/19 12:59:28;;;;;;;6.35;4.43;;;15.20;80.10;;;;;;4957522;28;20125;-69
2023/04/19 13:01:54;;;;;;;10.65;5.30;;;15.40;84.50;;;;;;4938166;29;20397;-69